LFOK 181530Z AUTO 34014KT 9999 ///TCU 22/15 Q1014 TEMPO 3000 SHRA BKN040CB BECMG VRB03KT

ElémentsDécodage
LFOK Station météo située sur l'aérodrome de CHALONS Vatry
181530Z émis le 18 du mois à 15h30 UTC
AUTO Bulletin édité par un automate
34014KT vent du 340°, 14 noeuds
9999 visibilité horizontale supérieure à 10 Km
///TCU élement non décodé
22/15 température 22°C, point de rosée 15°C
 soit une humidité relative de 65%
Q1014 la pression au niveau de la mer (QNH) est de 1014 hPa
TEMPO fluctuation temporaire prévue
3000 visibilité horizontale de 3000 mètres
SHRA averse(s) de pluie
BKN040CB nuages morcelés (5/8 à 7/8) à 4000 pieds
 présence de cumulonimbus
BECMG fluctuation du temps prévue
VRB03KT vent de direction variable, 03 noeuds